Time;durP1;ratioP1;P1;durP2;ratioP2;P2;SDS_P1;SDS_P2;PMS_P1;PMS_P2;Temp;Humidity;BMP_temperature;BMP_pressure;BME280_temperature;BME280_humidity;BME280_pressure;Samples;Min_cycle;Max_cycle;Signal;HPM_P1;HPM_P2
2023/09/16 00:01:33;;;;;;;4.50;4.10;;;15.30;99.90;;;;;;4825213;29;20452;-74
2023/09/16 00:08:12;;;;;;;5.53;4.63;;;15.20;99.90;;;;;;4840255;29;20456;-75
2023/09/16 00:14:48;;;;;;;6.23;5.07;;;15.20;99.90;;;;;;4836346;29;20426;-74
2023/09/16 00:16:51;;;;;;;7.53;5.23;;;15.20;99.90;;;;;;4830611;29;20451;-75
2023/09/16 00:19:18;;;;;;;4.50;4.10;;;15.20;99.90;;;;;;4840924;29;20439;-75
2023/09/16 00:24:48;;;;;;;6.13;5.57;;;15.10;99.90;;;;;;4963731;28;20411;-75
2023/09/16 00:31:33;;;;;;;6.27;4.80;;;15.10;99.90;;;;;;4994228;28;20545;-75
2023/09/16 00:41:35;;;;;;;5.97;5.47;;;15.30;99.90;;;;;;4993732;28;20798;-74
2023/09/16 00:51:44;;;;;;;;;;;;;;;;;;;;;
2023/09/16 01:01:50;;;;;;;8.17;5.47;;;15.50;99.90;;;;;;4993579;28;20388;-75
2023/09/16 01:04:17;;;;;;;5.70;5.17;;;15.40;99.90;;;;;;4917456;28;20559;-74
2023/09/16 01:10:49;;;;;;;6.33;5.67;;;15.40;99.90;;;;;;4993707;28;20530;-74
2023/09/16 01:13:23;;;;;;;7.20;6.20;;;15.40;99.90;;;;;;4993678;28;20436;-74
2023/09/16 01:16:36;;;;;;;5.40;5.00;;;15.40;99.90;;;;;;4975266;28;20494;-75
2023/09/16 01:26:31;;;;;;;7.10;6.50;;;15.50;99.90;;;;;;4913573;29;20383;-75
2023/09/16 01:29:00;;;;;;;6.33;5.83;;;15.50;99.90;;;;;;4914536;29;20441;-73
2023/09/16 01:31:26;;;;;;;6.90;6.20;;;15.50;99.90;;;;;;4936305;28;20558;-73
2023/09/16 01:34:03;;;;;;;6.40;5.80;;;15.60;99.90;;;;;;4976004;28;20424;-74
2023/09/16 01:40:20;;;;;;;;;;;;;;;;;;;;;
2023/09/16 01:46:38;;;;;;;6.53;6.00;;;15.60;99.90;;;;;;4992595;28;20900;-73
2023/09/16 01:49:06;;;;;;;6.97;5.90;;;15.60;99.90;;;;;;4975905;28;20960;-75
2023/09/16 01:53:16;;;;;;;8.43;5.77;;;15.60;99.90;;;;;;4993284;28;20459;-75
2023/09/16 01:58:31;;;;;;;6.20;5.60;;;15.60;99.90;;;;;;4914123;29;20442;-74
2023/09/16 02:00:57;;;;;;;5.90;5.33;;;15.60;99.90;;;;;;4914259;29;20504;-75
2023/09/16 02:03:35;;;;;;;6.30;5.80;;;15.60;99.90;;;;;;4972779;28;20471;-75
2023/09/16 02:06:31;;;;;;;6.23;5.67;;;15.60;99.90;;;;;;4992348;28;20278;-75
2023/09/16 02:26:07;;;;;;;8.67;6.27;;;15.40;99.90;;;;;;4860446;29;20426;-74
2023/09/16 02:28:35;;;;;;;6.87;6.17;;;15.30;99.90;;;;;;4861328;29;20506;-75
2023/09/16 02:33:59;;;;;;;7.03;6.43;;;15.30;99.90;;;;;;4989164;28;20533;-74
2023/09/16 02:36:43;;;;;;;8.97;6.30;;;15.30;99.90;;;;;;4995621;28;20415;-73
2023/09/16 02:42:55;;;;;;;12.33;6.50;;;15.10;99.90;;;;;;4904389;28;20510;-75
2023/09/16 02:45:21;;;;;;;7.40;6.00;;;15.10;99.90;;;;;;4991041;28;20507;-74
2023/09/16 02:52:21;;;;;;;;;;;;;;;;;;;;;
2023/09/16 03:11:06;;;;;;;9.30;7.00;;;15.00;99.90;;;;;;4843385;29;20466;-74
2023/09/16 03:16:37;;;;;;;6.30;5.70;;;15.00;99.90;;;;;;4831894;29;20442;-75
2023/09/16 03:19:03;;;;;;;7.13;6.53;;;15.00;99.90;;;;;;4921041;29;20521;-75
2023/09/16 03:21:30;;;;;;;13.67;7.13;;;15.00;99.90;;;;;;4975144;28;20511;-73
2023/09/16 03:23:56;;;;;;;7.53;6.80;;;15.00;99.90;;;;;;4993999;28;20508;-74
2023/09/16 03:26:41;;;;;;;6.43;5.93;;;14.90;99.90;;;;;;4994413;28;20428;-74
2023/09/16 03:29:12;;;;;;;7.23;6.53;;;15.00;99.90;;;;;;4995577;28;20448;-74
2023/09/16 03:32:29;;;;;;;;;;;;;;;;;;;;;
2023/09/16 03:34:56;;;;;;;7.53;6.80;;;14.90;99.90;;;;;;4941777;28;20439;-74
2023/09/16 03:37:33;;;;;;;6.30;5.70;;;14.90;99.90;;;;;;4977087;28;20443;-74
2023/09/16 03:39:59;;;;;;;7.77;7.10;;;14.90;99.90;;;;;;4995321;28;20161;-75
2023/09/16 03:42:28;;;;;;;7.80;7.00;;;14.90;99.90;;;;;;4994857;28;20487;-74
2023/09/16 03:48:10;;;;;;;6.70;6.20;;;14.90;99.90;;;;;;4995069;28;20800;-75
2023/09/16 03:54:15;;;;;;;6.43;5.83;;;14.90;99.90;;;;;;4957550;28;20871;-75
2023/09/16 03:56:41;;;;;;;7.10;6.40;;;14.80;99.90;;;;;;4976987;28;20442;-74
2023/09/16 04:00:13;;;;;;;;;;;;;;;;;;;;;
2023/09/16 04:03:11;;;;;;;7.27;6.53;;;14.80;99.90;;;;;;4994106;28;20161;-74
2023/09/16 04:05:37;;;;;;;7.33;6.63;;;14.70;99.90;;;;;;4993771;28;20411;-74
2023/09/16 04:08:05;;;;;;;7.53;6.87;;;14.70;99.90;;;;;;4977557;28;20439;-73
2023/09/16 04:17:24;;;;;;;9.13;7.27;;;14.70;99.90;;;;;;4899161;28;20424;-74
2023/09/16 04:19:50;;;;;;;7.30;6.70;;;14.70;99.90;;;;;;4993943;28;20439;-73
2023/09/16 04:26:03;;;;;;;7.43;6.50;;;14.70;99.90;;;;;;4993437;28;20522;-73
2023/09/16 04:28:39;;;;;;;7.70;7.00;;;14.70;99.90;;;;;;4994221;28;20440;-75
2023/09/16 04:31:26;;;;;;;7.87;7.10;;;14.70;99.90;;;;;;4994200;28;20881;-75
2023/09/16 04:37:49;;;;;;;6.70;6.20;;;14.70;99.90;;;;;;4992782;28;20455;-74
2023/09/16 04:40:34;;;;;;;8.70;7.43;;;14.70;99.90;;;;;;4993113;28;20434;-74
2023/09/16 04:43:03;;;;;;;9.07;7.77;;;14.70;99.90;;;;;;4994105;28;20408;-73
2023/09/16 04:45:29;;;;;;;13.07;7.77;;;14.60;99.90;;;;;;4993292;28;20419;-74
2023/09/16 04:48:04;;;;;;;8.57;7.77;;;14.70;99.90;;;;;;4993972;28;20403;-73
2023/09/16 04:50:31;;;;;;;7.17;6.47;;;14.70;99.90;;;;;;4957415;28;20493;-75
2023/09/16 04:53:34;;;;;;;9.17;7.30;;;14.70;99.90;;;;;;4993930;28;20411;-74
2023/09/16 04:56:21;;;;;;;7.70;7.10;;;14.70;99.90;;;;;;4992593;28;20916;-74
2023/09/16 05:02:01;;;;;;;8.40;7.60;;;14.70;99.90;;;;;;4993858;28;20415;-73
2023/09/16 05:04:27;;;;;;;7.93;6.93;;;14.60;99.90;;;;;;4993632;28;20412;-75
2023/09/16 05:10:10;;;;;;;;;;;;;;;;;;;;;
2023/09/16 05:13:11;;;;;;;;;;;;;;;;;;;;;
2023/09/16 05:19:03;;;;;;;12.00;7.17;;;14.70;99.90;;;;;;4897586;28;20415;-75
2023/09/16 05:25:02;;;;;;;7.37;6.63;;;14.80;99.90;;;;;;4914599;29;20414;-73
2023/09/16 05:28:00;;;;;;;7.67;6.87;;;14.80;99.90;;;;;;4913476;29;20447;-74
2023/09/16 05:34:08;;;;;;;9.63;7.50;;;14.80;99.90;;;;;;4914178;29;20472;-74
2023/09/16 05:37:23;;;;;;;7.40;6.67;;;14.80;99.90;;;;;;4913392;29;20522;-74
2023/09/16 05:40:29;;;;;;;8.00;7.20;;;14.80;99.90;;;;;;4914542;29;20407;-74
2023/09/16 05:43:33;;;;;;;;;;;;;;;;;;;;;
2023/09/16 05:46:52;;;;;;;8.30;7.10;;;14.90;99.90;;;;;;4988317;28;20422;-75
2023/09/16 05:49:40;;;;;;;7.67;6.87;;;14.90;99.90;;;;;;4993858;28;20412;-74
2023/09/16 05:55:43;;;;;;;8.00;6.60;;;14.90;99.90;;;;;;4997175;28;20427;-73
2023/09/16 05:58:39;;;;;;;8.63;7.10;;;15.00;99.90;;;;;;4995152;28;20432;-73
2023/09/16 06:02:02;;;;;;;8.53;7.73;;;15.00;99.90;;;;;;4996729;28;20480;-74
2023/09/16 06:05:41;;;;;;;;;;;;;;;;;;;;;
2023/09/16 06:08:43;;;;;;;;;;;;;;;;;;;;;
2023/09/16 06:22:00;;;;;;;7.40;6.23;;;15.30;99.90;;;;;;4843389;29;20442;-82
2023/09/16 06:24:51;;;;;;;6.83;6.33;;;15.30;99.90;;;;;;4842557;29;20518;-76
2023/09/16 06:31:34;;;;;;;6.70;5.80;;;15.30;99.90;;;;;;4898802;29;20501;-83
2023/09/16 06:34:15;;;;;;;7.33;6.73;;;15.40;99.90;;;;;;4883518;29;20429;-82
2023/09/16 06:37:05;;;;;;;11.90;6.13;;;15.40;99.90;;;;;;4897829;29;20503;-77
2023/09/16 06:40:06;;;;;;;6.70;6.10;;;15.50;99.90;;;;;;4949636;28;20525;-77
2023/09/16 06:43:12;;;;;;;7.30;6.60;;;15.50;99.90;;;;;;4995965;28;20412;-80
2023/09/16 06:46:01;;;;;;;8.00;6.30;;;15.60;99.90;;;;;;4978080;28;20506;-83
2023/09/16 06:48:44;;;;;;;6.90;6.20;;;15.60;99.90;;;;;;4994810;28;20451;-81
2023/09/16 06:51:42;;;;;;;6.33;5.83;;;15.70;99.90;;;;;;4996257;28;20459;-77
2023/09/16 06:54:25;;;;;;;6.57;5.83;;;15.70;99.90;;;;;;4996201;28;20416;-82
2023/09/16 07:00:21;;;;;;;8.93;7.10;;;15.90;99.90;;;;;;4995719;28;20903;-81
2023/09/16 07:02:58;;;;;;;6.13;5.53;;;16.00;99.90;;;;;;4978785;28;20412;-80
2023/09/16 07:12:22;;;;;;;7.07;6.37;;;16.30;99.90;;;;;;4997455;28;20458;-81
2023/09/16 07:21:31;;;;;;;8.17;6.80;;;16.50;94.40;;;;;;4995826;28;20749;-74
2023/09/16 07:27:43;;;;;;;6.73;5.70;;;16.60;85.00;;;;;;4995057;28;20451;-74
2023/09/16 07:30:37;;;;;;;5.97;5.40;;;16.60;77.10;;;;;;4995022;28;20510;-74
2023/09/16 07:36:50;;;;;;;12.80;6.30;;;16.90;75.50;;;;;;4895860;29;20470;-74
2023/09/16 07:39:31;;;;;;;6.10;5.60;;;16.90;58.70;;;;;;4897688;29;20424;-75
2023/09/16 07:42:38;;;;;;;5.60;5.10;;;17.00;50.60;;;;;;4987832;28;20428;-75
2023/09/16 07:45:20;;;;;;;;;;;;;;;;;;;;;
2023/09/16 07:52:04;;;;;;;5.70;5.20;;;17.30;28.00;;;;;;4995110;28;20491;-74
2023/09/16 07:54:06;;;;;;;5.57;4.87;;;17.40;10.80;;;;;;4993884;28;20428;-75
2023/09/16 07:57:28;;;;;;;;;;;;;;;;;;;;;
2023/09/16 08:00:10;;;;;;;6.40;5.80;;;17.60;7.20;;;;;;4994860;28;20407;-75
2023/09/16 08:12:36;;;;;;;6.00;5.40;;;17.90;1.00;;;;;;4915568;29;20535;-75
2023/09/16 08:15:05;;;;;;;5.87;4.90;;;18.00;1.00;;;;;;4896716;29;20917;-75
2023/09/16 08:21:05;;;;;;;4.93;4.53;;;18.20;1.00;;;;;;4994154;28;20411;-75
2023/09/16 08:26:42;;;;;;;5.30;4.80;;;18.50;1.00;;;;;;4993697;28;20959;-74
2023/09/16 08:33:32;;;;;;;5.30;4.90;;;18.60;1.00;;;;;;4974233;28;20422;-74
2023/09/16 08:35:58;;;;;;;4.87;4.40;;;18.80;1.00;;;;;;4914786;29;20628;-76
2023/09/16 08:38:49;;;;;;;5.67;4.90;;;18.90;1.00;;;;;;4991282;28;20792;-76
2023/09/16 08:41:27;;;;;;;7.57;5.20;;;19.10;1.00;;;;;;4994133;28;20400;-76
2023/09/16 08:43:58;;;;;;;4.20;3.90;;;19.20;1.00;;;;;;4994110;28;20633;-74
2023/09/16 08:47:21;;;;;;;4.40;4.00;;;19.40;1.00;;;;;;4976019;28;20423;-74
2023/09/16 08:49:34;;;;;;;;;;;;;;;;;;;;;
2023/09/16 08:52:23;;;;;;;5.07;4.60;;;19.80;1.00;;;;;;4993363;28;20459;-76
2023/09/16 08:54:50;;;;;;;9.47;4.70;;;20.00;1.00;;;;;;4994208;28;20495;-75
2023/09/16 08:57:17;;;;;;;4.80;4.07;;;20.10;1.00;;;;;;4975912;28;20495;-75
2023/09/16 08:59:44;;;;;;;4.70;4.20;;;20.20;1.00;;;;;;4993988;28;20411;-75
2023/09/16 09:02:29;;;;;;;6.10;3.90;;;20.40;1.00;;;;;;4992751;28;20933;-74
2023/09/16 09:04:59;;;;;;;4.67;4.20;;;20.50;1.00;;;;;;4993892;28;20411;-74
2023/09/16 09:07:34;;;;;;;3.73;3.43;;;20.70;1.00;;;;;;4992932;28;20436;-73
2023/09/16 09:10:26;;;;;;;4.57;4.13;;;20.70;1.00;;;;;;4993512;28;20491;-74
2023/09/16 09:33:54;;;;;;;4.37;3.97;;;22.70;1.00;;;;;;5070188;28;20536;-77
2023/09/16 09:36:20;;;;;;;5.10;3.70;;;22.80;1.00;;;;;;5068836;28;20396;-77
2023/09/16 09:38:46;;;;;;;4.90;4.30;;;23.10;1.00;;;;;;5070317;28;20170;-75
2023/09/16 09:41:13;;;;;;;4.10;3.80;;;23.30;1.00;;;;;;5068965;28;20409;-74
2023/09/16 09:43:39;;;;;;;5.03;3.43;;;23.40;1.00;;;;;;5070091;28;20404;-75
2023/09/16 09:46:04;;;;;;;9.13;3.90;;;23.50;1.00;;;;;;5069172;28;20753;-78
2023/09/16 09:48:32;;;;;;;4.00;3.70;;;23.60;1.00;;;;;;5069964;28;20528;-77
2023/09/16 09:51:01;;;;;;;4.67;4.20;;;23.70;1.00;;;;;;5070097;28;20397;-76
2023/09/16 09:53:28;;;;;;;6.20;4.77;;;23.90;1.00;;;;;;5068720;28;21077;-74
2023/09/16 09:55:54;;;;;;;6.90;4.70;;;24.20;1.00;;;;;;5069357;28;20405;-79
2023/09/16 09:58:20;;;;;;;6.93;5.27;;;24.40;1.00;;;;;;5068453;28;20447;-74
2023/09/16 10:00:47;;;;;;;5.63;5.00;;;24.50;1.00;;;;;;5069941;28;20171;-75
2023/09/16 10:03:14;;;;;;;6.07;5.03;;;24.60;1.00;;;;;;5069681;28;20409;-80
2023/09/16 10:05:40;;;;;;;11.57;4.87;;;24.70;1.00;;;;;;5067448;28;20420;-81
2023/09/16 10:08:05;;;;;;;4.50;4.10;;;25.10;1.00;;;;;;5069583;28;20420;-76
2023/09/16 10:10:32;;;;;;;6.47;3.87;;;25.30;1.00;;;;;;5069580;28;20228;-81
2023/09/16 10:12:58;;;;;;;6.87;4.30;;;25.60;1.00;;;;;;5069554;28;20199;-84
2023/09/16 10:15:36;;;;;;;4.20;3.63;;;25.70;1.00;;;;;;5067865;28;20417;-81
2023/09/16 10:18:03;;;;;;;3.77;3.33;;;25.80;1.00;;;;;;5069558;28;20456;-84
2023/09/16 10:20:31;;;;;;;4.07;3.77;;;25.90;1.00;;;;;;5069467;28;20397;-83
2023/09/16 10:22:58;;;;;;;8.00;4.10;;;26.00;1.00;;;;;;5068847;28;20760;-77
2023/09/16 10:25:24;;;;;;;5.97;3.50;;;26.10;1.00;;;;;;5068729;28;20753;-82
2023/09/16 10:27:57;;;;;;;5.93;4.00;;;26.10;1.00;;;;;;5068179;28;20447;-77
2023/09/16 10:30:25;;;;;;;4.77;3.47;;;26.20;99.90;;;;;;5068766;28;20257;-80
2023/09/16 10:32:52;;;;;;;3.57;3.27;;;26.20;99.90;;;;;;5068689;28;20548;-81
2023/09/16 10:35:19;;;;;;;5.37;3.77;;;26.50;99.90;;;;;;5068156;28;20409;-81
2023/09/16 10:37:48;;;;;;;4.50;3.83;;;26.80;99.90;;;;;;5068356;28;20429;-77
2023/09/16 10:40:16;;;;;;;3.97;3.63;;;26.90;99.90;;;;;;5050921;28;20793;-74
2023/09/16 10:42:44;;;;;;;11.80;3.60;;;27.10;99.90;;;;;;5068943;28;20507;-82
2023/09/16 10:45:13;;;;;;;5.27;3.87;;;27.20;99.90;;;;;;5054011;28;20500;-84
2023/09/16 10:47:41;;;;;;;3.40;3.10;;;27.10;99.90;;;;;;5054747;28;20567;-78
2023/09/16 10:50:07;;;;;;;3.73;3.20;;;26.70;99.90;;;;;;5049097;28;20418;-83
2023/09/16 10:53:00;;;;;;;10.50;4.03;;;26.40;99.90;;;;;;5034307;28;20454;-83
2023/09/16 10:55:28;;;;;;;4.20;3.40;;;26.10;99.90;;;;;;5034892;28;20843;-76
2023/09/16 10:58:12;;;;;;;3.30;3.00;;;25.90;99.90;;;;;;5035275;28;20426;-77
2023/09/16 11:00:47;;;;;;;4.90;3.97;;;25.80;99.90;;;;;;5035153;28;20899;-75
2023/09/16 11:03:14;;;;;;;4.00;3.60;;;25.80;99.90;;;;;;5035495;28;20497;-75
2023/09/16 11:05:40;;;;;;;5.50;3.90;;;25.80;99.90;;;;;;5034511;28;20398;-83
2023/09/16 11:08:07;;;;;;;3.90;3.40;;;25.80;99.90;;;;;;5035440;28;20414;-78
2023/09/16 11:10:33;;;;;;;3.93;3.63;;;25.60;99.90;;;;;;5035466;28;20403;-79
2023/09/16 11:13:01;;;;;;;4.17;3.70;;;25.50;99.90;;;;;;5033866;28;20810;-79
2023/09/16 11:15:36;;;;;;;4.50;4.10;;;25.50;99.90;;;;;;5034418;28;20398;-84
2023/09/16 11:18:03;;;;;;;4.30;3.50;;;25.30;99.90;;;;;;5034633;28;20418;-84
2023/09/16 11:20:33;;;;;;;3.93;3.63;;;25.20;99.90;;;;;;5034076;28;20402;-82
2023/09/16 11:23:06;;;;;;;4.57;4.00;;;25.40;99.90;;;;;;5035288;28;20911;-79
2023/09/16 11:25:36;;;;;;;5.50;4.00;;;25.40;99.90;;;;;;5034643;28;20417;-81
2023/09/16 11:28:03;;;;;;;4.27;3.93;;;25.50;99.90;;;;;;5035230;28;20422;-79
2023/09/16 11:30:32;;;;;;;4.23;3.70;;;25.60;99.90;;;;;;5035438;28;20415;-79
2023/09/16 11:32:57;;;;;;;4.33;2.97;;;25.50;99.90;;;;;;5034717;28;20511;-74
2023/09/16 11:35:26;;;;;;;4.60;3.00;;;25.40;99.90;;;;;;5033054;28;20414;-77
2023/09/16 11:37:56;;;;;;;3.57;3.33;;;25.50;99.90;;;;;;5033205;28;20903;-75
2023/09/16 11:40:31;;;;;;;3.33;3.03;;;25.50;99.90;;;;;;5033898;28;20402;-73
2023/09/16 11:42:57;;;;;;;4.63;3.50;;;25.50;99.90;;;;;;5017512;28;20833;-81
2023/09/16 11:45:24;;;;;;;5.30;3.03;;;25.50;99.90;;;;;;5033935;28;20402;-82
2023/09/16 11:47:50;;;;;;;4.20;3.30;;;25.50;99.90;;;;;;5034627;28;20426;-79
2023/09/16 11:50:26;;;;;;;3.37;3.17;;;25.60;99.90;;;;;;5034557;28;20406;-76
2023/09/16 11:52:53;;;;;;;5.63;3.60;;;25.90;99.90;;;;;;5033010;28;20454;-79
2023/09/16 11:55:19;;;;;;;4.50;3.27;;;26.20;99.90;;;;;;5032556;28;20883;-75
2023/09/16 11:57:47;;;;;;;3.53;3.23;;;26.50;99.90;;;;;;5033049;28;20423;-80
2023/09/16 12:00:14;;;;;;;3.30;3.00;;;26.60;99.90;;;;;;5034383;28;20402;-74
2023/09/16 12:02:43;;;;;;;3.90;3.60;;;26.70;99.90;;;;;;5034499;28;20409;-81
2023/09/16 12:05:11;;;;;;;6.33;3.10;;;26.80;99.90;;;;;;5034101;28;20456;-81
2023/09/16 12:07:37;;;;;;;3.77;3.40;;;26.90;99.90;;;;;;5033216;28;20453;-73
2023/09/16 12:10:03;;;;;;;3.60;3.30;;;27.10;99.90;;;;;;5034193;28;20413;-76
2023/09/16 12:12:29;;;;;;;3.87;3.50;;;27.70;99.90;;;;;;5032364;28;20461;-79
2023/09/16 12:15:02;;;;;;;5.37;3.27;;;28.30;99.90;;;;;;5034042;28;20564;-71
2023/09/16 12:17:28;;;;;;;3.20;3.00;;;29.00;99.90;;;;;;5031840;28;20282;-80
2023/09/16 12:19:56;;;;;;;3.50;3.20;;;29.70;99.90;;;;;;5033776;28;20908;-74
2023/09/16 12:22:23;;;;;;;11.20;2.57;;;30.20;99.90;;;;;;5033877;28;20406;-72
2023/09/16 12:24:53;;;;;;;4.23;3.10;;;30.50;99.90;;;;;;5034032;28;20413;-78
2023/09/16 12:27:20;;;;;;;4.97;2.93;;;30.70;99.90;;;;;;5032550;28;20775;-79
2023/09/16 12:29:45;;;;;;;4.33;3.07;;;31.10;99.90;;;;;;5033663;28;20403;-71
2023/09/16 12:32:14;;;;;;;4.07;2.70;;;31.60;99.90;;;;;;5033834;28;20472;-78
2023/09/16 12:34:41;;;;;;;3.03;2.83;;;32.10;99.90;;;;;;5032665;28;20178;-71
2023/09/16 12:37:07;;;;;;;3.70;3.40;;;32.40;99.90;;;;;;5032818;28;20418;-71
2023/09/16 12:39:36;;;;;;;3.80;3.50;;;32.70;99.90;;;;;;5033588;28;20755;-78
2023/09/16 12:42:04;;;;;;;2.63;2.43;;;32.60;99.90;;;;;;5032489;28;20910;-78
2023/09/16 12:44:31;;;;;;;3.00;2.67;;;32.80;99.90;;;;;;5033200;28;20414;-71
2023/09/16 12:46:58;;;;;;;3.20;2.83;;;33.10;99.90;;;;;;5032488;28;20501;-72
2023/09/16 12:49:25;;;;;;;3.57;2.70;;;33.20;99.90;;;;;;5033746;28;20620;-79
2023/09/16 12:51:52;;;;;;;4.03;2.97;;;33.20;99.90;;;;;;5033327;28;20457;-78
2023/09/16 12:54:18;;;;;;;7.30;3.07;;;33.40;99.90;;;;;;5033473;28;20390;-72
2023/09/16 12:56:51;;;;;;;3.80;3.00;;;33.20;99.90;;;;;;5032632;28;20421;-73
2023/09/16 12:59:18;;;;;;;4.37;2.70;;;33.70;99.90;;;;;;5033426;28;20174;-72
2023/09/16 13:01:44;;;;;;;10.10;3.23;;;33.60;99.90;;;;;;5031307;28;21027;-71
2023/09/16 13:04:10;;;;;;;2.50;2.40;;;33.70;99.90;;;;;;5033331;28;20402;-71
2023/09/16 13:06:37;;;;;;;2.77;2.57;;;33.70;99.90;;;;;;5031941;28;20723;-77
2023/09/16 13:09:03;;;;;;;3.10;2.90;;;33.90;99.90;;;;;;5033301;28;20378;-70
2023/09/16 13:11:29;;;;;;;3.70;2.97;;;34.10;99.90;;;;;;5032228;28;20413;-79
2023/09/16 13:13:57;;;;;;;3.30;2.60;;;34.20;99.90;;;;;;5032028;28;20413;-80
2023/09/16 13:16:28;;;;;;;4.03;3.30;;;34.60;99.90;;;;;;5030813;28;20428;-77
2023/09/16 13:18:54;;;;;;;3.43;3.13;;;35.00;99.90;;;;;;5031450;28;20926;-74
2023/09/16 13:21:47;;;;;;;3.30;3.00;;;35.40;99.90;;;;;;5032923;28;20774;-80
2023/09/16 13:24:13;;;;;;;4.40;2.90;;;35.90;99.90;;;;;;5031560;28;20433;-77
2023/09/16 13:26:55;;;;;;;2.93;2.73;;;36.20;99.90;;;;;;5032125;28;20930;-77
2023/09/16 13:29:21;;;;;;;2.57;2.37;;;36.60;99.90;;;;;;5033065;28;20579;-78
2023/09/16 13:31:59;;;;;;;3.43;2.50;;;36.20;99.90;;;;;;5032646;28;20426;-74
2023/09/16 13:34:38;;;;;;;3.07;2.87;;;36.10;99.90;;;;;;5032750;28;20433;-75
2023/09/16 13:37:04;;;;;;;3.37;2.90;;;35.70;99.90;;;;;;5031137;28;20468;-79
2023/09/16 13:39:41;;;;;;;2.60;2.50;;;35.80;99.90;;;;;;5032882;28;20393;-73
2023/09/16 13:42:06;;;;;;;2.73;2.60;;;35.60;99.90;;;;;;5032660;28;20592;-81
2023/09/16 13:44:32;;;;;;;6.80;2.90;;;35.40;99.90;;;;;;5032793;28;20434;-81
2023/09/16 13:46:58;;;;;;;2.77;2.57;;;35.20;99.90;;;;;;5031935;28;20195;-73
2023/09/16 13:49:23;;;;;;;2.90;2.70;;;35.00;99.90;;;;;;5032893;28;20206;-74
2023/09/16 13:51:51;;;;;;;3.50;2.80;;;34.40;99.90;;;;;;5032698;28;20640;-76
2023/09/16 13:54:17;;;;;;;2.83;2.63;;;33.80;99.90;;;;;;5031986;28;20648;-81
2023/09/16 13:56:43;;;;;;;3.73;3.43;;;33.20;99.90;;;;;;5032019;28;20419;-78
2023/09/16 13:59:09;;;;;;;2.60;2.50;;;32.70;99.90;;;;;;5032786;28;20174;-75
2023/09/16 14:01:35;;;;;;;2.60;2.40;;;32.40;99.90;;;;;;5032645;28;20449;-75
2023/09/16 14:04:02;;;;;;;3.77;3.33;;;32.50;99.90;;;;;;5032483;28;20433;-79
2023/09/16 14:06:29;;;;;;;3.17;2.97;;;32.90;99.90;;;;;;5031473;28;20171;-76
2023/09/16 14:08:55;;;;;;;2.77;2.57;;;33.60;99.90;;;;;;5032658;28;20473;-79
2023/09/16 14:11:21;;;;;;;3.20;3.00;;;34.70;99.90;;;;;;5032149;28;20398;-73
2023/09/16 14:13:46;;;;;;;3.00;2.80;;;35.50;99.90;;;;;;5032624;28;20441;-78
2023/09/16 14:16:12;;;;;;;3.73;2.80;;;35.80;99.90;;;;;;5031750;28;20182;-76
2023/09/16 14:18:38;;;;;;;3.27;2.87;;;35.90;99.90;;;;;;5031691;28;20286;-76
2023/09/16 14:21:05;;;;;;;3.57;3.10;;;36.50;99.90;;;;;;5036396;28;20167;-76
2023/09/16 14:23:30;;;;;;;3.13;2.93;;;36.80;99.90;;;;;;5035064;28;20175;-80
2023/09/16 14:26:00;;;;;;;3.00;2.80;;;36.90;99.90;;;;;;5035183;28;20452;-76
2023/09/16 14:28:26;;;;;;;3.07;2.77;;;37.30;99.90;;;;;;5036094;28;20520;-78
2023/09/16 14:30:51;;;;;;;4.30;3.90;;;37.50;99.90;;;;;;5035634;28;20179;-79
2023/09/16 14:33:17;;;;;;;3.70;3.40;;;37.60;99.90;;;;;;5035956;28;20207;-75
2023/09/16 14:35:45;;;;;;;5.83;5.30;;;37.70;99.90;;;;;;5035190;28;20583;-78
2023/09/16 14:38:11;;;;;;;2.63;2.43;;;37.10;99.90;;;;;;5034987;28;20191;-78
2023/09/16 14:40:38;;;;;;;2.97;2.77;;;37.00;99.90;;;;;;5035870;28;20163;-76
2023/09/16 14:43:06;;;;;;;3.10;2.90;;;37.10;99.90;;;;;;5036003;28;20207;-77
2023/09/16 14:45:31;;;;;;;2.80;2.60;;;37.00;99.90;;;;;;5035145;28;20171;-80
2023/09/16 14:47:57;;;;;;;3.30;3.00;;;36.80;99.90;;;;;;5035245;28;20195;-79
2023/09/16 14:50:23;;;;;;;3.77;3.47;;;36.70;99.90;;;;;;5035827;28;20175;-78
2023/09/16 14:52:49;;;;;;;3.23;3.03;;;36.40;99.90;;;;;;5035614;28;20195;-79
2023/09/16 14:55:17;;;;;;;4.90;2.50;;;36.40;99.90;;;;;;5035340;28;20198;-79
2023/09/16 14:57:43;;;;;;;3.07;2.87;;;35.60;99.90;;;;;;5035515;28;20471;-78
2023/09/16 15:00:09;;;;;;;4.77;3.10;;;34.90;99.90;;;;;;5034669;28;20504;-80
2023/09/16 15:02:38;;;;;;;3.27;2.93;;;34.60;99.90;;;;;;5034313;28;20501;-77
2023/09/16 15:05:04;;;;;;;10.43;3.10;;;34.10;99.90;;;;;;5035333;28;20802;-78
2023/09/16 15:07:30;;;;;;;4.03;2.80;;;33.40;99.90;;;;;;5034146;28;20425;-79
2023/09/16 15:09:56;;;;;;;3.87;2.70;;;32.40;99.90;;;;;;5035422;28;20883;-80
2023/09/16 15:12:22;;;;;;;3.43;2.73;;;31.40;99.90;;;;;;5035492;28;20211;-79
2023/09/16 15:14:48;;;;;;;3.53;2.57;;;30.70;99.90;;;;;;5035298;28;20160;-81
2023/09/16 15:17:14;;;;;;;3.97;3.10;;;30.00;99.90;;;;;;5034213;28;20425;-80
2023/09/16 15:19:40;;;;;;;3.93;3.40;;;29.40;99.90;;;;;;5034289;28;20414;-81
2023/09/16 15:22:05;;;;;;;2.93;2.73;;;28.90;99.90;;;;;;5035243;28;20242;-81
2023/09/16 15:24:32;;;;;;;2.90;2.70;;;28.50;99.90;;;;;;5035140;28;20216;-79
2023/09/16 15:26:58;;;;;;;3.00;2.80;;;28.10;99.90;;;;;;5033501;28;20191;-81
2023/09/16 15:29:24;;;;;;;3.40;3.10;;;27.80;99.90;;;;;;5035071;28;20409;-80
2023/09/16 15:31:49;;;;;;;3.37;3.00;;;27.70;99.90;;;;;;5034854;28;20418;-82
2023/09/16 15:34:16;;;;;;;4.27;3.70;;;27.50;99.90;;;;;;5034940;28;20406;-81
2023/09/16 15:36:43;;;;;;;3.67;3.03;;;27.30;99.90;;;;;;5034059;28;20664;-81
2023/09/16 15:39:09;;;;;;;4.00;3.60;;;27.30;99.90;;;;;;5034773;28;20987;-80
2023/09/16 15:41:36;;;;;;;6.53;3.50;;;27.20;99.90;;;;;;5034843;28;20442;-81
2023/09/16 15:44:01;;;;;;;4.70;3.50;;;27.00;99.90;;;;;;5034485;28;20160;-82
2023/09/16 15:46:27;;;;;;;2.97;2.77;;;26.70;99.90;;;;;;5033675;28;20409;-80
2023/09/16 15:48:53;;;;;;;3.60;3.30;;;26.60;99.90;;;;;;5034682;28;20250;-81
2023/09/16 15:51:18;;;;;;;3.37;3.07;;;26.40;99.90;;;;;;5034672;28;20178;-81
2023/09/16 15:53:44;;;;;;;2.93;2.73;;;26.30;99.90;;;;;;5033217;28;20290;-81
2023/09/16 15:56:10;;;;;;;2.80;2.60;;;26.30;99.90;;;;;;5032462;28;20193;-80
2023/09/16 15:58:36;;;;;;;4.63;3.23;;;26.20;99.90;;;;;;5034495;28;20262;-80
2023/09/16 16:01:03;;;;;;;3.27;3.00;;;26.10;99.90;;;;;;5033780;28;20187;-80
2023/09/16 16:03:28;;;;;;;3.07;2.87;;;25.90;99.90;;;;;;5034410;28;20410;-73
2023/09/16 16:05:57;;;;;;;3.80;3.50;;;25.80;99.90;;;;;;5033450;28;20233;-80
2023/09/16 16:08:23;;;;;;;3.53;3.20;;;25.70;99.90;;;;;;5034299;28;20250;-85
2023/09/16 16:10:49;;;;;;;3.97;3.27;;;25.50;99.90;;;;;;5034397;28;20401;-84
2023/09/16 16:13:20;;;;;;;3.50;3.20;;;25.40;99.90;;;;;;5034956;28;20190;-85
2023/09/16 16:15:49;;;;;;;4.90;4.00;;;25.20;99.90;;;;;;5033847;28;20406;-85
2023/09/16 16:18:15;;;;;;;4.20;3.90;;;25.10;99.90;;;;;;5035310;28;20435;-82
2023/09/16 16:20:41;;;;;;;3.60;3.27;;;25.00;99.90;;;;;;5035266;28;20455;-80
2023/09/16 16:23:07;;;;;;;5.87;5.30;;;24.80;99.90;;;;;;5034473;28;20263;-82
2023/09/16 16:25:33;;;;;;;4.90;4.13;;;24.70;99.90;;;;;;5033549;28;20415;-82
2023/09/16 16:27:59;;;;;;;4.20;3.80;;;24.50;99.90;;;;;;5032964;28;20684;-80
2023/09/16 16:30:25;;;;;;;6.80;4.47;;;24.20;99.90;;;;;;5034114;28;20199;-80
2023/09/16 16:32:51;;;;;;;5.00;4.50;;;24.10;99.90;;;;;;5033727;28;20701;-82
2023/09/16 16:35:18;;;;;;;6.97;4.67;;;24.00;99.90;;;;;;5031682;28;20498;-82
2023/09/16 16:37:45;;;;;;;4.23;3.90;;;24.00;99.90;;;;;;5031775;28;20488;-80
2023/09/16 16:40:10;;;;;;;3.70;3.40;;;23.80;99.90;;;;;;5032434;28;20473;-81
2023/09/16 16:42:36;;;;;;;5.50;4.00;;;23.80;99.90;;;;;;5033260;28;20899;-80
2023/09/16 16:45:03;;;;;;;4.30;4.00;;;23.70;99.90;;;;;;5033684;28;20217;-84
2023/09/16 16:47:29;;;;;;;4.57;4.13;;;23.60;99.90;;;;;;5031304;28;20191;-80
2023/09/16 16:49:55;;;;;;;5.63;4.20;;;23.60;99.90;;;;;;5033648;28;20760;-82
2023/09/16 16:52:21;;;;;;;5.03;4.40;;;23.60;99.90;;;;;;5033413;28;20191;-80
2023/09/16 16:54:46;;;;;;;5.07;4.60;;;23.40;99.90;;;;;;5033646;28;20399;-86
2023/09/16 16:57:13;;;;;;;4.60;4.20;;;23.40;99.90;;;;;;5032337;28;20648;-78
2023/09/16 16:59:39;;;;;;;5.10;4.60;;;23.40;99.90;;;;;;5033215;28;20214;-87
2023/09/16 17:02:07;;;;;;;5.53;4.90;;;23.30;99.90;;;;;;5033161;28;20414;-78
2023/09/16 17:04:36;;;;;;;4.77;4.37;;;23.30;99.90;;;;;;5033394;28;20429;-84
2023/09/16 17:07:02;;;;;;;5.53;4.63;;;23.20;99.90;;;;;;5046484;28;20458;-78
2023/09/16 17:09:28;;;;;;;5.60;4.63;;;23.10;99.90;;;;;;5052914;28;20405;-86
2023/09/16 17:11:54;;;;;;;6.53;4.90;;;22.90;99.90;;;;;;5052954;28;20424;-82
2023/09/16 17:14:20;;;;;;;5.30;4.70;;;22.80;99.90;;;;;;5053052;28;20178;-81
2023/09/16 17:16:47;;;;;;;8.30;5.67;;;22.70;99.90;;;;;;5051638;28;20248;-81
2023/09/16 17:19:12;;;;;;;8.60;4.87;;;22.50;99.90;;;;;;5052654;28;20448;-80
2023/09/16 17:21:39;;;;;;;12.37;10.17;;;22.40;99.90;;;;;;5052995;28;20805;-77
2023/09/16 17:24:05;;;;;;;9.17;5.83;;;22.30;99.90;;;;;;5052864;28;20528;-82